This is the latest recevied weather packets stored in our database for station/object HK4D-15. If no packets are shown the sender has not sent any weather packets the latest 10 day(s).
| Time | Temp. | Humidity | Pressure | Rain* | Wind** | Luminosity | Snow |
|---|---|---|---|---|---|---|---|
| 1777512962 | 16.11° C | 82% | 1014 hPa | 0 mm | - | - | - |
| 1777512300 | 16.11° C | 82% | 1013 hPa | 0 mm | - | - | - |
| 1777511640 | 16.11° C | 82% | 1013 hPa | 0 mm | - | - | - |
| 1777510979 | 16.11° C | 82% | 1013 hPa | 0 mm | - | - | - |
| 1777510317 | 16.11° C | 82% | 1013 hPa | 0 mm | - | - | - |
| 1777508328 | 16.11° C | 82% | 1012 hPa | 0 mm | - | - | - |
| 1777507656 | 16.11° C | 82% | 1012 hPa | 0 mm | - | - | - |
| 1777506996 | 18.89° C | 63% | 1012 hPa | 0 mm | - | - | - |
| 1777506334 | 18.89° C | 63% | 1012 hPa | 0 mm | - | - | - |
| 1777505673 | 18.89° C | 63% | 1012 hPa | 0 mm | - | - | - |
| 1777505012 | 18.89° C | 63% | 1011 hPa | 0 mm | - | - | - |
| 1777504352 | 18.89° C | 63% | 1011 hPa | 0 mm | - | - | - |
| 1777503686 | 21.11° C | 56% | 1011 hPa | 0 mm | - | - | - |
| 1777503024 | 21.11° C | 56% | 1011 hPa | 0 mm | - | - | - |
| 1777502364 | 21.11° C | 56% | 1011 hPa | 0 mm | - | - | - |
| 1777501703 | 20.56° C | 59% | 1010 hPa | 0 mm | - | - | - |
| 1777501042 | 20.56° C | 59% | 1010 hPa | 0 mm | - | - | - |
| 1777500381 | 20.56° C | 59% | 1010 hPa | 0 mm | - | - | - |
| 1777499721 | 21.67° C | 56% | 1010 hPa | 0 mm | - | - | - |
| 1777499060 | 21.67° C | 56% | 1010 hPa | 0 mm | - | - | - |
| 1777498400 | 21.11° C | 58% | 1010 hPa | 0 mm | - | - | - |
| 1777497739 | 21.11° C | 58% | 1009 hPa | 0 mm | - | - | - |
| 1777497077 | 20.56° C | 59% | 1009 hPa | 0 mm | - | - | - |
| 1777496416 | 21.11° C | 58% | 1009 hPa | 0 mm | - | - | - |
| 1777495756 | 21.11° C | 58% | 1009 hPa | 0 mm | - | - | - |
* Rain latest hour (hover to see other rain measurements)
** Current wind speed in m/s (hover to see current wind gust speed)